createdAt,value
2023-01-17T00:01:59.286Z,0.52
2023-01-17T00:04:44.878Z,0.70
2023-01-17T00:07:31.348Z,0.20
2023-01-17T00:10:01.244Z,1.08
2023-01-17T00:12:30.249Z,0.60
2023-01-17T00:14:58.387Z,1.23
2023-01-17T00:17:27.466Z,0.50
2023-01-17T00:20:12.517Z,1.55
2023-01-17T00:22:57.970Z,1.58
2023-01-17T00:25:47.727Z,0.60
2023-01-17T00:28:14.940Z,0.30
2023-01-17T00:30:41.579Z,0.35
2023-01-17T00:33:08.232Z,0.30
2023-01-17T00:35:35.181Z,0.90
2023-01-17T00:38:03.889Z,0.50
2023-01-17T00:40:32.438Z,0.57
2023-01-17T00:43:17.999Z,0.75
2023-01-17T00:46:03.729Z,0.35
2023-01-17T00:48:49.394Z,1.23
2023-01-17T00:51:35.119Z,0.95
2023-01-17T00:54:20.279Z,0.50
2023-01-17T00:57:07.064Z,0.50
2023-01-17T00:59:52.523Z,0.40
2023-01-17T01:02:38.162Z,0.88
2023-01-17T01:05:24.010Z,0.52
2023-01-17T01:08:09.268Z,1.27
2023-01-17T01:10:54.576Z,0.32
2023-01-17T01:13:43.098Z,0.50
2023-01-17T01:16:28.334Z,0.32
2023-01-17T01:19:13.813Z,1.20
2023-01-17T01:21:59.323Z,0.35
2023-01-17T01:24:44.335Z,0.20
2023-01-17T01:27:29.727Z,0.40
2023-01-17T01:30:16.707Z,0.45
2023-01-17T01:33:01.975Z,0.43
2023-01-17T01:35:28.959Z,0.40
2023-01-17T01:37:55.611Z,0.40
2023-01-17T01:40:22.275Z,0.43
2023-01-17T01:42:50.812Z,0.60
2023-01-17T01:45:21.229Z,0.45
2023-01-17T01:47:49.514Z,1.45
2023-01-17T01:50:17.140Z,0.40
2023-01-17T01:52:46.652Z,0.82
2023-01-17T01:55:17.465Z,0.52
2023-01-17T01:57:49.529Z,0.57
2023-01-17T02:00:21.365Z,0.95
2023-01-17T02:02:49.797Z,0.35
2023-01-17T02:05:20.675Z,0.82
2023-01-17T02:07:52.287Z,0.43
2023-01-17T02:10:19.307Z,0.40
2023-01-17T02:12:46.861Z,1.63
2023-01-17T02:15:13.635Z,1.95
2023-01-17T02:17:55.486Z,0.60
2023-01-17T02:20:47.854Z,1.35
2023-01-17T02:23:55.238Z,0.40
2023-01-17T02:26:41.096Z,1.17
2023-01-17T02:29:30.415Z,0.35
2023-01-17T02:34:35.248Z,0.60
2023-01-17T02:37:09.528Z,0.43
2023-01-17T02:39:41.533Z,0.40
2023-01-17T02:42:14.495Z,1.63
2023-01-17T02:44:42.528Z,0.50
2023-01-17T02:47:23.123Z,0.40
2023-01-17T02:49:51.135Z,0.60
2023-01-17T02:52:37.292Z,0.43
2023-01-17T02:55:14.716Z,0.57
2023-01-17T02:58:06.381Z,0.77
2023-01-17T03:00:40.483Z,0.52
2023-01-17T03:03:15.534Z,1.08
2023-01-17T03:05:48.633Z,1.25
2023-01-17T03:08:15.896Z,1.48
2023-01-17T03:10:44.415Z,2.38
2023-01-17T03:13:11.030Z,0.93
2023-01-17T03:15:39.381Z,0.77
2023-01-17T03:18:12.554Z,2.30
2023-01-17T03:20:39.170Z,0.75
2023-01-17T03:23:05.788Z,0.43
2023-01-17T03:25:32.415Z,0.50
2023-01-17T03:27:59.078Z,2.78
2023-01-17T03:30:25.968Z,0.73
2023-01-17T03:32:52.711Z,2.00
2023-01-17T03:35:20.789Z,1.95
2023-01-17T03:37:47.385Z,1.13
2023-01-17T03:40:14.211Z,1.63
2023-01-17T03:42:40.917Z,1.33
2023-01-17T03:45:08.604Z,1.17
2023-01-17T03:47:35.948Z,0.68
2023-01-17T03:50:02.997Z,0.60
2023-01-17T03:52:30.925Z,0.60
2023-01-17T03:54:57.584Z,0.57
2023-01-17T03:57:24.195Z,0.50
2023-01-17T03:59:50.876Z,1.13
2023-01-17T04:02:17.963Z,0.98
2023-01-17T04:04:44.533Z,0.95
2023-01-17T04:07:11.165Z,0.60
2023-01-17T04:09:39.100Z,0.22
2023-01-17T04:12:06.066Z,3.00
2023-01-17T04:14:32.928Z,2.30
2023-01-17T04:17:00.039Z,1.75
2023-01-17T04:19:27.118Z,1.40
2023-01-17T04:21:53.677Z,2.25
2023-01-17T04:24:20.266Z,3.22
2023-01-17T04:26:48.219Z,4.00
2023-01-17T04:29:14.821Z,2.28
2023-01-17T04:31:41.435Z,3.42
2023-01-17T04:34:08.077Z,2.55
2023-01-17T04:36:34.726Z,2.13
2023-01-17T04:39:01.330Z,1.17
2023-01-17T04:41:28.035Z,2.97
2023-01-17T04:43:56.311Z,1.52
2023-01-17T04:46:23.089Z,0.93
2023-01-17T04:48:49.698Z,1.90
2023-01-17T04:51:16.335Z,2.13
2023-01-17T04:53:42.972Z,4.25
2023-01-17T04:56:09.573Z,2.33
2023-01-17T04:58:36.242Z,3.65
2023-01-17T05:01:04.980Z,2.88
2023-01-17T05:03:32.305Z,2.53
2023-01-17T05:05:59.160Z,3.50
2023-01-17T05:08:25.823Z,5.45
2023-01-17T05:10:52.621Z,3.10
2023-01-17T05:13:19.265Z,4.68
2023-01-17T05:15:46.629Z,7.47
2023-01-17T05:18:15.897Z,4.15
2023-01-17T05:20:43.110Z,4.53
2023-01-17T05:23:10.516Z,7.60
2023-01-17T05:25:38.154Z,6.07
2023-01-17T05:28:05.164Z,5.55
2023-01-17T05:30:32.822Z,4.82
2023-01-17T05:32:59.453Z,4.88
2023-01-17T05:35:29.214Z,7.28
2023-01-17T05:37:56.757Z,4.00
2023-01-17T05:40:25.631Z,3.90
2023-01-17T05:42:53.696Z,4.13
2023-01-17T05:45:23.065Z,5.45
2023-01-17T05:47:51.910Z,3.92
2023-01-17T05:50:21.739Z,6.07
2023-01-17T05:52:54.694Z,3.28
2023-01-17T05:55:22.468Z,4.50
2023-01-17T05:57:49.350Z,3.88
2023-01-17T06:00:17.417Z,4.05
2023-01-17T06:02:44.327Z,6.22
2023-01-17T06:05:11.658Z,6.90
2023-01-17T06:07:38.588Z,6.80
2023-01-17T06:10:07.452Z,12.52
2023-01-17T06:12:34.062Z,8.63
2023-01-17T06:15:00.657Z,5.70
2023-01-17T06:17:27.316Z,10.85
2023-01-17T06:19:53.907Z,8.60
2023-01-17T06:22:20.488Z,9.52
2023-01-17T06:24:47.116Z,7.00
2023-01-17T06:27:15.037Z,5.80
2023-01-17T06:29:41.654Z,7.55
2023-01-17T06:32:08.304Z,6.50
2023-01-17T06:34:34.950Z,8.15
2023-01-17T06:37:01.525Z,11.77
2023-01-17T06:39:28.098Z,7.40
2023-01-17T06:41:54.823Z,10.82
2023-01-17T06:44:22.863Z,6.47
2023-01-17T06:46:49.518Z,10.48
2023-01-17T06:49:16.122Z,7.68
2023-01-17T06:51:43.734Z,5.97
2023-01-17T06:54:10.533Z,7.05
2023-01-17T06:56:37.689Z,6.95
2023-01-17T06:59:05.072Z,10.30
2023-01-17T07:01:33.232Z,10.43
2023-01-17T07:04:00.129Z,9.18
2023-01-17T07:06:28.800Z,11.55
2023-01-17T07:08:56.337Z,14.13
2023-01-17T07:11:23.416Z,11.10
2023-01-17T07:13:50.046Z,9.63
2023-01-17T07:16:16.756Z,8.82
2023-01-17T07:18:44.728Z,9.68
2023-01-17T07:21:13.279Z,14.40
2023-01-17T07:23:40.199Z,10.25
2023-01-17T07:26:07.090Z,11.88
2023-01-17T07:28:34.045Z,8.40
2023-01-17T07:31:04.895Z,16.90
2023-01-17T07:33:31.485Z,14.30
2023-01-17T07:35:59.548Z,13.32
2023-01-17T07:38:26.307Z,11.88
2023-01-17T07:40:52.969Z,19.60
2023-01-17T07:43:19.584Z,16.83
2023-01-17T07:45:52.186Z,15.98
2023-01-17T07:48:20.904Z,13.68
2023-01-17T07:50:52.294Z,17.02
2023-01-17T07:53:20.459Z,28.15
2023-01-17T07:55:47.157Z,17.10
2023-01-17T07:58:14.990Z,12.10
2023-01-17T08:00:43.976Z,13.13
2023-01-17T08:03:13.663Z,13.98
2023-01-17T08:05:40.873Z,13.35
2023-01-17T08:08:08.065Z,14.25
2023-01-17T08:10:36.206Z,12.00
2023-01-17T08:13:02.872Z,16.88
2023-01-17T08:15:29.703Z,11.60
2023-01-17T08:17:57.682Z,16.58
2023-01-17T08:20:27.562Z,14.88
2023-01-17T08:22:55.447Z,22.48
2023-01-17T08:25:23.511Z,19.02
2023-01-17T08:27:56.124Z,15.23
2023-01-17T08:30:22.759Z,17.02
2023-01-17T08:32:49.400Z,14.85
2023-01-17T08:35:16.123Z,17.50
2023-01-17T08:37:42.828Z,17.33
2023-01-17T08:40:11.165Z,19.58
2023-01-17T08:42:40.091Z,13.35
2023-01-17T08:45:09.434Z,13.02
2023-01-17T08:47:36.613Z,16.00
2023-01-17T08:50:04.272Z,16.20
2023-01-17T08:52:31.092Z,15.35
2023-01-17T08:54:57.784Z,12.60
2023-01-17T08:57:25.062Z,15.57
2023-01-17T08:59:51.696Z,15.63
2023-01-17T09:02:20.134Z,19.00
2023-01-17T09:04:47.757Z,17.80
2023-01-17T09:07:14.613Z,18.58
2023-01-17T09:09:41.253Z,15.82
2023-01-17T09:12:07.962Z,15.80
2023-01-17T09:14:34.669Z,15.43
2023-01-17T09:17:01.652Z,15.52
2023-01-17T09:19:29.632Z,14.27
2023-01-17T09:21:56.248Z,15.43
2023-01-17T09:24:22.926Z,13.10
2023-01-17T09:26:49.644Z,13.50
2023-01-17T09:29:18.203Z,11.57
2023-01-17T09:31:47.205Z,13.82
2023-01-17T09:34:15.594Z,18.40
2023-01-17T09:36:43.654Z,13.27
2023-01-17T09:39:11.281Z,13.63
2023-01-17T09:41:48.134Z,16.33
2023-01-17T09:44:25.019Z,13.00
2023-01-17T09:46:54.415Z,10.20
2023-01-17T09:49:32.709Z,14.43
2023-01-17T09:52:02.271Z,11.52
2023-01-17T09:54:34.254Z,11.00
2023-01-17T09:57:08.958Z,10.00
2023-01-17T09:59:46.083Z,10.35
2023-01-17T10:02:36.332Z,10.35
2023-01-17T10:05:28.239Z,11.45
2023-01-17T10:08:10.041Z,7.15
2023-01-17T10:10:41.946Z,9.90
2023-01-17T10:13:25.829Z,12.80
2023-01-17T10:16:15.406Z,6.00
2023-01-17T10:19:00.254Z,7.10
2023-01-17T10:21:39.125Z,4.25
2023-01-17T10:24:24.637Z,7.03
2023-01-17T10:26:54.416Z,7.45
2023-01-17T10:29:22.838Z,3.35
2023-01-17T10:31:54.348Z,8.38
2023-01-17T10:34:28.290Z,6.43
2023-01-17T10:37:01.953Z,2.75
2023-01-17T10:39:31.105Z,2.70
2023-01-17T10:42:01.923Z,8.68
2023-01-17T10:44:35.340Z,4.80
2023-01-17T10:47:10.489Z,1.83
2023-01-17T10:49:38.899Z,3.60
2023-01-17T10:52:23.503Z,2.55
2023-01-17T10:54:59.054Z,7.50
2023-01-17T10:57:27.887Z,6.80
2023-01-17T10:59:59.942Z,6.18
2023-01-17T11:02:30.464Z,5.30
2023-01-17T11:05:02.560Z,5.47
2023-01-17T11:07:29.707Z,2.55
2023-01-17T11:09:59.034Z,3.15
2023-01-17T11:12:29.620Z,1.67
2023-01-17T11:15:01.677Z,2.40
2023-01-17T11:17:29.403Z,2.72
2023-01-17T11:20:08.373Z,2.03
2023-01-17T11:22:35.359Z,2.05
2023-01-17T11:25:04.604Z,4.05
2023-01-17T11:27:33.932Z,4.55
2023-01-17T11:30:15.969Z,2.22
2023-01-17T11:32:53.058Z,1.95
2023-01-17T11:35:22.509Z,3.15
2023-01-17T11:37:51.527Z,4.85
2023-01-17T11:40:27.338Z,4.10
2023-01-17T11:43:04.928Z,1.63
2023-01-17T11:45:33.103Z,3.65
2023-01-17T11:48:15.940Z,4.57
2023-01-17T11:50:46.354Z,1.15
2023-01-17T11:53:23.594Z,1.52
2023-01-17T11:56:03.319Z,2.55
2023-01-17T11:58:32.380Z,5.35
2023-01-17T12:01:06.693Z,4.57
2023-01-17T12:03:52.500Z,3.53
2023-01-17T12:06:29.443Z,3.67
2023-01-17T12:09:08.850Z,3.25
2023-01-17T12:12:08.782Z,2.33
2023-01-17T12:14:46.649Z,3.30
2023-01-17T12:17:29.375Z,2.47
2023-01-17T12:20:01.312Z,1.20
2023-01-17T12:22:41.979Z,1.33
2023-01-17T12:25:47.782Z,2.75
2023-01-17T12:28:33.199Z,1.88
2023-01-17T12:31:12.468Z,5.95
2023-01-17T12:33:47.385Z,4.45
2023-01-17T12:36:27.978Z,4.20
2023-01-17T12:38:56.697Z,3.40
2023-01-17T12:41:26.545Z,3.65
2023-01-17T12:43:59.167Z,10.20
2023-01-17T12:46:30.308Z,3.47
2023-01-17T12:49:03.987Z,2.78
2023-01-17T12:51:36.806Z,3.97
2023-01-17T12:54:13.246Z,2.30
2023-01-17T12:56:45.737Z,2.60
2023-01-17T12:59:18.952Z,2.30
2023-01-17T13:01:57.210Z,3.30
2023-01-17T13:04:28.299Z,2.70
2023-01-17T13:07:05.259Z,2.25
2023-01-17T13:09:39.513Z,6.45
2023-01-17T13:12:11.065Z,1.92
2023-01-17T13:14:39.154Z,2.53
2023-01-17T13:17:24.117Z,4.07
2023-01-17T13:19:57.673Z,3.60
2023-01-17T13:22:27.207Z,4.55
2023-01-17T13:25:00.641Z,2.53
2023-01-17T13:27:46.628Z,3.97
2023-01-17T13:30:31.355Z,7.95
2023-01-17T13:33:16.168Z,3.13
2023-01-17T13:35:55.063Z,8.75
2023-01-17T13:38:34.489Z,10.15
2023-01-17T13:41:12.056Z,11.60
2023-01-17T13:44:02.058Z,9.48
2023-01-17T13:46:31.511Z,4.93
2023-01-17T13:49:37.251Z,5.72
2023-01-17T13:52:09.573Z,6.25
2023-01-17T13:54:45.005Z,5.07
2023-01-17T13:57:36.057Z,2.53
2023-01-17T14:00:58.210Z,5.22
2023-01-17T14:04:05.239Z,5.15
2023-01-17T14:06:38.582Z,4.18
2023-01-17T14:09:13.133Z,7.07
2023-01-17T14:11:52.296Z,9.55
2023-01-17T14:14:50.428Z,5.45
2023-01-17T14:17:57.052Z,4.72
2023-01-17T14:20:51.048Z,4.03
2023-01-17T14:23:52.164Z,5.20
2023-01-17T14:26:36.820Z,4.85
2023-01-17T14:29:41.208Z,5.15
2023-01-17T14:32:11.882Z,2.85
2023-01-17T14:34:38.716Z,6.00
2023-01-17T14:37:15.897Z,5.05
2023-01-17T14:39:48.928Z,7.18
2023-01-17T14:42:18.419Z,3.85
2023-01-17T14:44:46.991Z,5.47
2023-01-17T14:47:15.403Z,4.50
2023-01-17T14:49:42.206Z,7.72
2023-01-17T14:52:15.905Z,3.10
2023-01-17T14:54:53.314Z,3.28
2023-01-17T14:57:26.736Z,3.45
2023-01-17T15:00:09.478Z,4.90
2023-01-17T15:05:10.013Z,4.35
2023-01-17T15:07:37.182Z,4.20
2023-01-17T15:10:07.424Z,6.20
2023-01-17T15:12:36.739Z,11.93
2023-01-17T15:15:03.782Z,7.90
2023-01-17T15:17:30.673Z,6.30
2023-01-17T15:20:01.576Z,8.68
2023-01-17T15:22:29.846Z,5.65
2023-01-17T15:24:58.697Z,3.10
2023-01-17T15:27:27.232Z,5.93
2023-01-17T15:29:57.488Z,6.47
2023-01-17T15:32:31.270Z,8.85
2023-01-17T15:34:59.354Z,4.53
2023-01-17T15:37:30.108Z,3.42
2023-01-17T15:40:06.583Z,3.83
2023-01-17T15:42:38.688Z,5.47
2023-01-17T15:45:12.878Z,10.02
2023-01-17T15:47:39.603Z,9.88
2023-01-17T15:50:27.721Z,8.45
2023-01-17T15:52:57.567Z,6.25
2023-01-17T15:55:29.569Z,11.75
2023-01-17T15:57:57.677Z,10.77
2023-01-17T16:00:32.436Z,8.18
2023-01-17T16:02:59.830Z,11.75
2023-01-17T16:05:41.944Z,5.25
2023-01-17T16:08:25.164Z,4.07
2023-01-17T16:10:54.828Z,6.57
2023-01-17T16:13:22.908Z,5.80
2023-01-17T16:15:49.732Z,7.50
2023-01-17T16:18:19.293Z,13.95
2023-01-17T16:20:48.493Z,7.70
2023-01-17T16:23:15.987Z,15.93
2023-01-17T16:25:44.373Z,11.85
2023-01-17T16:28:11.315Z,8.75
2023-01-17T16:30:39.288Z,14.73
2023-01-17T16:33:06.028Z,7.10
2023-01-17T16:35:34.195Z,5.03
2023-01-17T16:38:03.540Z,6.15
2023-01-17T16:40:32.127Z,8.35
2023-01-17T16:43:00.389Z,22.52
2023-01-17T16:45:27.824Z,15.48
2023-01-17T16:47:56.118Z,14.75
2023-01-17T16:50:25.057Z,32.17
2023-01-17T16:52:53.699Z,9.00
2023-01-17T16:55:22.498Z,12.18
2023-01-17T16:57:49.898Z,7.57
2023-01-17T17:00:17.494Z,8.45
2023-01-17T17:02:44.533Z,8.82
2023-01-17T17:05:12.638Z,8.25
2023-01-17T17:07:50.779Z,8.80
2023-01-17T17:10:20.118Z,10.93
2023-01-17T17:12:47.196Z,7.70
2023-01-17T17:15:14.299Z,9.80
2023-01-17T17:17:43.271Z,10.10
2023-01-17T17:20:13.544Z,15.90
2023-01-17T17:22:40.225Z,13.60
2023-01-17T17:25:07.339Z,14.63
2023-01-17T17:27:34.195Z,19.38
2023-01-17T17:30:00.915Z,16.83
2023-01-17T17:32:28.220Z,15.75
2023-01-17T17:34:54.850Z,15.63
2023-01-17T17:37:23.612Z,10.80
2023-01-17T17:39:50.260Z,17.08
2023-01-17T17:42:16.889Z,10.35
2023-01-17T17:44:43.663Z,11.13
2023-01-17T17:47:12.983Z,13.30
2023-01-17T17:49:39.764Z,14.27
2023-01-17T17:52:07.344Z,12.80
2023-01-17T17:54:35.996Z,11.55
2023-01-17T17:57:02.892Z,10.90
2023-01-17T17:59:30.051Z,11.35
2023-01-17T18:01:57.166Z,8.52
2023-01-17T18:04:23.892Z,8.13
2023-01-17T18:06:50.512Z,9.60
2023-01-17T18:09:17.416Z,6.55
2023-01-17T18:11:45.389Z,11.90
2023-01-17T18:14:14.477Z,9.98
2023-01-17T18:16:43.256Z,7.85
2023-01-17T18:19:14.103Z,7.70
2023-01-17T18:21:41.105Z,8.07
2023-01-17T18:24:10.218Z,9.20
2023-01-17T18:26:38.251Z,13.23
2023-01-17T18:29:09.907Z,13.45
2023-01-17T18:31:37.291Z,11.55
2023-01-17T18:34:06.459Z,10.70
2023-01-17T18:36:34.852Z,9.48
2023-01-17T18:39:02.638Z,10.88
2023-01-17T18:41:31.331Z,11.27
2023-01-17T18:43:59.475Z,10.55
2023-01-17T18:46:27.911Z,9.55
2023-01-17T18:48:56.368Z,10.48
2023-01-17T18:51:24.443Z,8.20
2023-01-17T18:53:53.530Z,10.07
2023-01-17T18:56:22.145Z,9.18
2023-01-17T18:58:50.603Z,12.13
2023-01-17T19:01:19.988Z,14.82
2023-01-17T19:03:50.158Z,14.27
2023-01-17T19:06:19.212Z,21.58
2023-01-17T19:08:45.933Z,29.23
2023-01-17T19:11:13.034Z,19.67
2023-01-17T19:13:41.721Z,19.30
2023-01-17T19:16:14.059Z,14.85
2023-01-17T19:18:41.388Z,12.15
2023-01-17T19:21:11.187Z,9.75
2023-01-17T19:23:38.892Z,12.40
2023-01-17T19:26:08.851Z,11.18
2023-01-17T19:28:37.904Z,12.55
2023-01-17T19:31:06.271Z,13.25
2023-01-17T19:33:35.177Z,11.55
2023-01-17T19:36:04.349Z,13.32
2023-01-17T19:38:34.672Z,8.80
2023-01-17T19:41:08.421Z,7.28
2023-01-17T19:43:35.233Z,6.70
2023-01-17T19:46:02.979Z,7.47
2023-01-17T19:48:33.681Z,8.00
2023-01-17T19:51:06.367Z,4.13
2023-01-17T19:53:38.518Z,6.03
2023-01-17T19:56:08.454Z,9.35
2023-01-17T19:58:36.171Z,7.57
2023-01-17T20:01:09.069Z,7.53
2023-01-17T20:03:37.703Z,9.75
2023-01-17T20:06:05.336Z,10.38
2023-01-17T20:08:33.784Z,9.73
2023-01-17T20:11:04.263Z,7.63
2023-01-17T20:13:31.313Z,5.07
2023-01-17T20:16:02.606Z,6.60
2023-01-17T20:18:29.913Z,3.63
2023-01-17T20:21:02.759Z,7.78
2023-01-17T20:23:32.401Z,6.40
2023-01-17T20:26:00.450Z,6.18
2023-01-17T20:28:30.816Z,5.22
2023-01-17T20:31:03.857Z,8.07
2023-01-17T20:33:30.939Z,9.95
2023-01-17T20:36:09.515Z,4.82
2023-01-17T20:38:44.760Z,7.63
2023-01-17T20:41:13.336Z,6.55
2023-01-17T20:43:42.190Z,6.00
2023-01-17T20:46:10.157Z,6.78
2023-01-17T20:48:39.335Z,6.22
2023-01-17T20:51:10.706Z,4.47
2023-01-17T20:53:38.772Z,6.07
2023-01-17T20:56:07.890Z,5.25
2023-01-17T20:58:35.255Z,3.08
2023-01-17T21:01:03.592Z,4.45
2023-01-17T21:03:31.592Z,6.75
2023-01-17T21:05:59.981Z,6.50
2023-01-17T21:08:26.658Z,6.82
2023-01-17T21:10:53.769Z,11.60
2023-01-17T21:13:21.018Z,8.05
2023-01-17T21:15:49.688Z,5.20
2023-01-17T21:18:19.677Z,7.18
2023-01-17T21:20:46.701Z,4.30
2023-01-17T21:23:20.213Z,4.75
2023-01-17T21:25:57.178Z,4.70
2023-01-17T21:28:25.953Z,6.80
2023-01-17T21:30:54.193Z,5.32
2023-01-17T21:33:24.203Z,7.15
2023-01-17T21:35:51.387Z,13.05
2023-01-17T21:38:18.563Z,6.18
2023-01-17T21:40:45.885Z,13.30
2023-01-17T21:43:13.659Z,14.85
2023-01-17T21:45:42.009Z,16.20
2023-01-17T21:48:14.835Z,15.25
2023-01-17T21:50:43.032Z,7.97
2023-01-17T21:53:10.274Z,12.10
2023-01-17T21:55:55.538Z,7.70
2023-01-17T21:58:41.519Z,11.05
2023-01-17T22:01:15.688Z,12.57
2023-01-17T22:03:42.774Z,11.68
2023-01-17T22:06:10.784Z,8.23
2023-01-17T22:08:37.914Z,10.70
2023-01-17T22:11:07.313Z,7.45
2023-01-17T22:13:35.496Z,8.10
2023-01-17T22:16:05.348Z,7.53
2023-01-17T22:18:36.221Z,9.27
2023-01-17T22:21:08.165Z,8.18
2023-01-17T22:23:38.410Z,9.70
2023-01-17T22:26:07.478Z,7.50
2023-01-17T22:28:34.855Z,6.22
2023-01-17T22:31:09.635Z,7.45
2023-01-17T22:33:38.298Z,6.97
2023-01-17T22:36:06.993Z,6.85
2023-01-17T22:38:36.427Z,7.57
2023-01-17T22:41:08.021Z,9.77
2023-01-17T22:43:37.854Z,9.35
2023-01-17T22:48:32.760Z,11.38
2023-01-17T22:51:02.436Z,9.20
2023-01-17T22:53:29.931Z,8.73
2023-01-17T22:56:05.055Z,9.38
2023-01-17T22:58:34.223Z,8.07
2023-01-17T23:01:05.597Z,10.50
2023-01-17T23:03:32.491Z,7.80
2023-01-17T23:06:08.723Z,10.18
2023-01-17T23:11:33.824Z,6.63
2023-01-17T23:14:01.645Z,9.00
2023-01-17T23:16:47.855Z,8.10
2023-01-17T23:19:24.439Z,7.32
2023-01-17T23:22:11.460Z,10.88
2023-01-17T23:24:43.360Z,6.63
2023-01-17T23:27:33.080Z,6.53
2023-01-17T23:30:00.179Z,7.18
2023-01-17T23:32:27.726Z,6.40
2023-01-17T23:34:54.712Z,8.57
2023-01-17T23:37:21.273Z,7.82
2023-01-17T23:39:47.887Z,8.60
2023-01-17T23:42:34.608Z,6.80
2023-01-17T23:45:01.645Z,7.93
2023-01-17T23:47:28.223Z,6.82
2023-01-17T23:49:54.838Z,9.85
2023-01-17T23:52:21.627Z,10.25
2023-01-17T23:54:48.492Z,7.90
2023-01-17T23:57:16.773Z,9.43
2023-01-17T23:59:43.467Z,9.20
